ENSG/SOG METAR and TAF weather

Enter ICAO airport designator
Station Type Date Time Source
ENSG METAR 2019/06/15 13:20 UTC NOAA

ENSG 151320Z VRB03KT CAVOK 22/05 Q1016 RMK WIND 3806FT 13010KT


Station Type Date Time Source
ENSG Decoded METAR 2019/06/15 13:20 UTC NOAA

Sogndal / Haukasen, Norway (ENSG) 61-09N 007-08E 497M
Jun 15, 2019 - 09:20 AM EDT / 2019.06.15 1320 UTC
Wind: Variable at 3 MPH (3 KT):0
Visibility: greater than 7 mile(s):0
Temperature: 71 F (22 C)
Dew Point: 41 F (5 C)
Relative Humidity: 32%
Pressure (altimeter): 30.00 in. Hg (1016 hPa)
ob: ENSG 151320Z VRB03KT CAVOK 22/05 Q1016 RMK WIND 3806FT 13010KT
cycle: 13

Station Type Date Time Source
ENSG TAF UTC NOAA

Error!

Example: see airport list